createdAt,value
2018-12-21T00:00:23.192Z,99964.50
2018-12-21T00:02:52.717Z,99967.90
2018-12-21T00:05:21.621Z,99970.49
2018-12-21T00:07:50.958Z,99973.05
2018-12-21T00:10:22.723Z,99964.48
2018-12-21T00:12:52.540Z,99964.91
2018-12-21T00:15:22.346Z,99959.33
2018-12-21T00:17:51.360Z,99955.08
2018-12-21T00:20:20.841Z,99956.34
2018-12-21T00:22:51.882Z,99944.78
2018-12-21T00:25:21.618Z,99938.78
2018-12-21T00:27:51.411Z,99936.64
2018-12-21T00:30:22.925Z,99938.36
2018-12-21T00:32:59.534Z,99943.07
2018-12-21T00:35:34.877Z,99934.08
2018-12-21T00:38:09.384Z,99929.34
2018-12-21T00:40:43.541Z,99937.06
2018-12-21T00:43:18.648Z,99925.08
2018-12-21T00:45:53.575Z,99931.93
2018-12-21T00:48:22.416Z,99924.66
2018-12-21T00:50:52.211Z,99927.23
2018-12-21T00:53:21.034Z,99921.21
2018-12-21T00:55:49.926Z,99921.23
2018-12-21T00:58:19.809Z,99918.23
2018-12-21T01:00:48.596Z,99908.78
2018-12-21T01:03:17.427Z,99903.66
2018-12-21T01:05:47.330Z,99904.06
2018-12-21T01:08:16.569Z,99888.22
2018-12-21T01:10:46.068Z,99886.50
2018-12-21T01:13:15.918Z,99886.50
2018-12-21T01:15:44.933Z,99884.36
2018-12-21T01:18:14.264Z,99883.08
2018-12-21T01:20:43.413Z,99882.22
2018-12-21T01:23:13.126Z,99883.05
2018-12-21T01:25:42.101Z,99883.91
2018-12-21T01:28:11.304Z,99889.51
2018-12-21T01:30:41.860Z,99890.36
2018-12-21T01:33:11.054Z,99900.20
2018-12-21T01:35:40.491Z,99900.66
2018-12-21T01:38:10.054Z,99894.66
2018-12-21T01:40:39.152Z,99902.77
2018-12-21T01:43:09.163Z,99890.80
2018-12-21T01:45:38.279Z,99896.80
2018-12-21T01:48:07.086Z,99892.08
2018-12-21T01:50:35.936Z,99898.05
2018-12-21T01:53:06.156Z,99882.62
2018-12-21T01:55:34.977Z,99881.33
2018-12-21T01:58:04.209Z,99878.76
2018-12-21T02:00:33.241Z,99876.65
2018-12-21T02:03:02.437Z,99874.90
2018-12-21T02:05:31.545Z,99876.22
2018-12-21T02:08:00.451Z,99871.94
2018-12-21T02:10:29.518Z,99868.90
2018-12-21T02:12:58.508Z,99861.18
2018-12-21T02:15:27.861Z,99856.41
2018-12-21T02:17:56.925Z,99851.31
2018-12-21T02:20:25.892Z,99858.17
2018-12-21T02:22:54.737Z,99849.60
2018-12-21T02:25:23.593Z,99847.03
2018-12-21T02:27:52.272Z,99842.74
2018-12-21T02:30:20.970Z,99832.45
2018-12-21T02:32:49.637Z,99823.83
2018-12-21T02:35:19.302Z,99830.27
2018-12-21T02:37:48.602Z,99825.58
2018-12-21T02:40:18.358Z,99819.54
2018-12-21T02:42:47.252Z,99813.97
2018-12-21T02:45:16.396Z,99805.38
2018-12-21T02:47:45.735Z,99799.42
2018-12-21T02:50:15.949Z,99798.52
2018-12-21T02:52:45.055Z,99799.38
2018-12-21T02:55:14.809Z,99798.93
2018-12-21T02:57:44.571Z,99791.64
2018-12-21T03:00:14.592Z,99791.22
2018-12-21T03:02:44.310Z,99791.22
2018-12-21T03:05:13.304Z,99788.64
2018-12-21T03:07:42.729Z,99790.80
2018-12-21T03:10:11.601Z,99791.23
2018-12-21T03:12:40.280Z,99790.35
2018-12-21T03:15:09.690Z,99782.99
2018-12-21T03:17:38.765Z,99789.91
2018-12-21T03:20:07.913Z,99785.62
2018-12-21T03:22:36.675Z,99774.47
2018-12-21T03:25:05.785Z,99767.14
2018-12-21T03:27:35.481Z,99765.42
2018-12-21T03:30:04.805Z,99766.26
2018-12-21T03:32:33.863Z,99756.81
2018-12-21T03:35:03.273Z,99755.97
2018-12-21T03:37:33.285Z,99749.97
2018-12-21T03:40:02.804Z,99735.86
2018-12-21T03:42:32.090Z,99729.00
2018-12-21T03:45:01.644Z,99714.86
2018-12-21T03:47:31.610Z,99717.42
2018-12-21T03:50:01.613Z,99711.45
2018-12-21T03:52:30.938Z,99699.88
2018-12-21T03:55:00.733Z,99691.29
2018-12-21T03:57:29.552Z,99679.72
2018-12-21T03:59:58.326Z,99675.00
2018-12-21T04:02:27.743Z,99666.06
2018-12-21T04:04:57.323Z,99663.02
2018-12-21T04:07:26.379Z,99653.58
2018-12-21T04:09:55.105Z,99643.67
2018-12-21T04:12:25.631Z,99638.13
2018-12-21T04:14:54.933Z,99641.55
2018-12-21T04:17:23.820Z,99641.50
2018-12-21T04:19:53.313Z,99631.62
2018-12-21T04:22:22.517Z,99631.66
2018-12-21T04:24:51.938Z,99634.65
2018-12-21T04:27:23.465Z,99620.84
2018-12-21T04:29:52.567Z,99616.97
2018-12-21T04:32:21.373Z,99612.70
2018-12-21T04:34:51.394Z,99605.78
2018-12-21T04:37:20.280Z,99602.36
2018-12-21T04:39:49.779Z,99597.20
2018-12-21T04:42:19.238Z,99597.63
2018-12-21T04:44:49.298Z,99594.61
2018-12-21T04:47:18.303Z,99581.22
2018-12-21T04:49:48.473Z,99577.75
2018-12-21T04:52:17.737Z,99569.20
2018-12-21T04:54:46.513Z,99561.48
2018-12-21T04:57:15.333Z,99558.89
2018-12-21T04:59:44.386Z,99554.50
2018-12-21T05:02:13.297Z,99545.48
2018-12-21T05:04:43.430Z,99541.21
2018-12-21T05:07:12.988Z,99539.92
2018-12-21T05:09:58.836Z,99546.33
2018-12-21T05:12:28.357Z,99530.45
2018-12-21T05:14:58.368Z,99528.34
2018-12-21T05:17:28.694Z,99520.61
2018-12-21T05:19:58.776Z,99523.50
2018-12-21T05:22:28.442Z,99524.32
2018-12-21T05:24:58.712Z,99518.25
2018-12-21T05:27:27.573Z,99504.13
2018-12-21T05:29:56.585Z,99501.06
2018-12-21T05:32:25.761Z,99495.45
2018-12-21T05:34:55.053Z,99494.19
2018-12-21T05:37:25.330Z,99483.86
2018-12-21T05:39:54.417Z,99473.48
2018-12-21T05:42:33.610Z,99477.89
2018-12-21T05:45:03.997Z,99472.34
2018-12-21T05:47:33.428Z,99467.58
2018-12-21T05:50:02.180Z,99469.80
2018-12-21T05:52:32.002Z,99462.34
2018-12-21T05:55:01.646Z,99447.07
2018-12-21T05:57:31.457Z,99437.34
2018-12-21T06:00:00.801Z,99431.75
2018-12-21T06:02:30.059Z,99426.61
2018-12-21T06:04:59.725Z,99414.88
2018-12-21T06:07:29.333Z,99403.70
2018-12-21T06:09:58.283Z,99406.25
2018-12-21T06:12:28.686Z,99402.34
2018-12-21T06:14:57.811Z,99400.08
2018-12-21T06:17:26.524Z,99394.55
2018-12-21T06:19:56.447Z,99389.75
2018-12-21T06:22:26.513Z,99380.30
2018-12-21T06:24:55.746Z,99376.94
2018-12-21T06:27:25.068Z,99361.88
2018-12-21T06:30:11.282Z,99363.52
2018-12-21T06:32:55.168Z,99357.81
2018-12-21T06:35:24.583Z,99341.22
2018-12-21T06:37:54.159Z,99338.28
2018-12-21T06:40:23.441Z,99320.38
2018-12-21T06:42:52.274Z,99307.96
2018-12-21T06:45:21.764Z,99309.72
2018-12-21T06:47:50.636Z,99310.98
2018-12-21T06:50:19.654Z,99314.47
2018-12-21T06:52:48.677Z,99304.59
2018-12-21T06:55:17.933Z,99304.17
2018-12-21T06:57:47.575Z,99302.93
2018-12-21T07:00:17.805Z,99301.25
2018-12-21T07:02:46.650Z,99288.49
2018-12-21T07:05:16.398Z,99293.64
2018-12-21T07:07:45.721Z,99283.28
2018-12-21T07:10:15.325Z,99282.92
2018-12-21T07:12:46.779Z,99278.25
2018-12-21T07:15:16.308Z,99267.55
2018-12-21T07:17:44.925Z,99264.97
2018-12-21T07:20:14.564Z,99258.08
2018-12-21T07:22:44.793Z,99246.02
2018-12-21T07:25:15.545Z,99243.09
2018-12-21T07:27:45.497Z,99236.17
2018-12-21T07:30:14.166Z,99231.52
2018-12-21T07:32:42.916Z,99219.52
2018-12-21T07:35:15.717Z,99219.12
2018-12-21T07:37:46.057Z,99201.45
2018-12-21T07:40:15.060Z,99181.73
2018-12-21T07:42:44.565Z,99168.45
2018-12-21T07:45:14.164Z,99165.48
2018-12-21T07:47:43.049Z,99147.02
2018-12-21T07:50:12.345Z,99145.81
2018-12-21T07:52:43.151Z,99144.50
2018-12-21T07:55:12.488Z,99134.56
2018-12-21T07:57:41.956Z,99126.39
2018-12-21T08:00:12.230Z,99116.51
2018-12-21T08:02:41.830Z,99106.93
2018-12-21T08:05:11.006Z,99097.03
2018-12-21T08:07:40.583Z,99102.17
2018-12-21T08:10:15.412Z,99096.63
2018-12-21T08:12:45.995Z,99085.38
2018-12-21T08:15:15.374Z,99075.08
2018-12-21T08:17:46.726Z,99067.34
2018-12-21T08:20:16.510Z,99071.11
2018-12-21T08:22:45.934Z,99062.38
2018-12-21T08:25:15.523Z,99070.30
2018-12-21T08:27:45.988Z,99065.55
2018-12-21T08:30:15.165Z,99053.13
2018-12-21T08:32:44.356Z,99051.00
2018-12-21T08:35:14.395Z,99047.55
2018-12-21T08:37:44.024Z,99031.66
2018-12-21T08:40:12.687Z,99028.20
2018-12-21T08:42:41.574Z,99030.66
2018-12-21T08:45:10.874Z,99021.50
2018-12-21T08:47:40.406Z,99016.06
2018-12-21T08:50:10.982Z,99008.66
2018-12-21T08:52:40.009Z,99000.93
2018-12-21T08:55:09.524Z,98993.16
2018-12-21T08:57:39.533Z,98996.14
2018-12-21T09:00:11.393Z,98986.00
2018-12-21T09:02:40.579Z,98982.16
2018-12-21T09:05:10.260Z,98989.38
2018-12-21T09:07:39.420Z,98974.30
2018-12-21T09:10:10.223Z,98964.49
2018-12-21T09:12:40.025Z,98967.83
2018-12-21T09:15:15.370Z,98954.16
2018-12-21T09:17:44.742Z,98954.58
2018-12-21T09:20:14.397Z,98948.89
2018-12-21T09:22:44.642Z,98939.41
2018-12-21T09:25:14.031Z,98940.79
2018-12-21T09:27:43.199Z,98934.23
2018-12-21T09:30:14.086Z,98923.92
2018-12-21T09:32:43.723Z,98923.78
2018-12-21T09:35:16.255Z,98916.05
2018-12-21T09:38:01.381Z,98920.00
2018-12-21T09:40:33.969Z,98922.92
2018-12-21T09:43:03.443Z,98896.25
2018-12-21T09:45:32.607Z,98892.48
2018-12-21T09:48:01.665Z,98877.47
2018-12-21T09:50:30.585Z,98881.27
2018-12-21T09:53:00.808Z,98874.39
2018-12-21T09:55:29.709Z,98855.03
2018-12-21T09:57:58.569Z,98854.53
2018-12-21T10:00:27.462Z,98845.92
2018-12-21T10:02:56.872Z,98841.20
2018-12-21T10:05:25.621Z,98826.66
2018-12-21T10:07:54.568Z,98819.30
2018-12-21T10:10:23.329Z,98822.73
2018-12-21T10:12:53.413Z,98805.07
2018-12-21T10:15:22.757Z,98794.63
2018-12-21T10:17:52.782Z,98787.34
2018-12-21T10:20:21.778Z,98775.78
2018-12-21T10:22:51.064Z,98774.16
2018-12-21T10:25:19.878Z,98767.30
2018-12-21T10:27:49.350Z,98757.30
2018-12-21T10:30:18.750Z,98749.80
2018-12-21T10:32:47.966Z,98738.78
2018-12-21T10:35:17.561Z,98738.57
2018-12-21T10:37:47.948Z,98735.63
2018-12-21T10:40:18.413Z,98735.11
2018-12-21T10:42:47.425Z,98724.32
2018-12-21T10:45:16.178Z,98731.58
2018-12-21T10:47:45.110Z,98723.33
2018-12-21T10:50:13.878Z,98708.72
2018-12-21T10:52:43.765Z,98707.56
2018-12-21T10:55:13.749Z,98693.27
2018-12-21T10:57:42.988Z,98676.69
2018-12-21T11:00:13.491Z,98683.94
2018-12-21T11:02:43.137Z,98691.07
2018-12-21T11:05:12.126Z,98677.50
2018-12-21T11:07:41.596Z,98659.77
2018-12-21T11:10:12.331Z,98670.68
2018-12-21T11:12:41.084Z,98675.23
2018-12-21T11:15:25.614Z,98657.54
2018-12-21T11:18:02.733Z,98661.59
2018-12-21T11:20:32.504Z,98660.66
2018-12-21T11:23:01.702Z,98653.56
2018-12-21T11:25:30.694Z,98628.11
2018-12-21T11:28:00.200Z,98629.22
2018-12-21T11:30:29.565Z,98633.40
2018-12-21T11:32:58.497Z,98643.68
2018-12-21T11:35:28.386Z,98643.91
2018-12-21T11:37:59.434Z,98631.18
2018-12-21T11:40:29.020Z,98627.12
2018-12-21T11:42:58.319Z,98627.52
2018-12-21T11:45:27.969Z,98637.00
2018-12-21T11:48:18.724Z,98637.84
2018-12-21T11:50:49.821Z,98619.16
2018-12-21T11:53:19.197Z,98616.28
2018-12-21T11:55:49.661Z,98632.53
2018-12-21T11:58:19.126Z,98617.48
2018-12-21T12:00:49.333Z,98599.80
2018-12-21T12:03:20.293Z,98610.40
2018-12-21T12:05:50.547Z,98602.91
2018-12-21T12:08:22.279Z,98602.66
2018-12-21T12:10:53.714Z,98597.69
2018-12-21T12:13:25.978Z,98594.66
2018-12-21T12:15:55.834Z,98605.69
2018-12-21T12:18:25.999Z,98598.38
2018-12-21T12:20:56.788Z,98598.18
2018-12-21T12:23:26.110Z,98600.22
2018-12-21T12:25:55.585Z,98606.89
2018-12-21T12:28:25.559Z,98606.63
2018-12-21T12:30:55.155Z,98604.79
2018-12-21T12:33:24.553Z,98601.41
2018-12-21T12:35:53.603Z,98597.38
2018-12-21T12:38:25.216Z,98607.06
2018-12-21T12:40:55.032Z,98600.83
2018-12-21T12:43:26.209Z,98604.12
2018-12-21T12:45:55.697Z,98599.07
2018-12-21T12:48:27.858Z,98597.67
2018-12-21T12:50:57.282Z,98591.73
2018-12-21T12:53:26.774Z,98590.67
2018-12-21T12:55:57.011Z,98592.70
2018-12-21T12:58:26.730Z,98588.82
2018-12-21T13:00:56.626Z,98593.77
2018-12-21T13:03:25.740Z,98586.80
2018-12-21T13:05:55.330Z,98588.28
2018-12-21T13:08:26.207Z,98589.41
2018-12-21T13:10:55.172Z,98587.60
2018-12-21T13:13:24.149Z,98588.27
2018-12-21T13:15:54.385Z,98597.08
2018-12-21T13:18:39.819Z,98585.98
2018-12-21T13:21:15.490Z,98601.67
2018-12-21T13:23:47.047Z,98590.27
2018-12-21T13:26:16.424Z,98587.89
2018-12-21T13:28:51.896Z,98590.36
2018-12-21T13:31:35.121Z,98591.84
2018-12-21T13:34:04.647Z,98591.63
2018-12-21T13:36:36.608Z,98588.86
2018-12-21T13:39:08.262Z,98589.70
2018-12-21T13:41:36.789Z,98581.75
2018-12-21T13:44:05.421Z,98592.56
2018-12-21T13:46:34.914Z,98595.76
2018-12-21T13:49:04.259Z,98597.17
2018-12-21T13:51:33.420Z,98597.63
2018-12-21T13:54:03.024Z,98608.50
2018-12-21T13:56:31.939Z,98595.55
2018-12-21T13:59:01.121Z,98625.68
2018-12-21T14:01:30.228Z,98614.53
2018-12-21T14:06:25.544Z,98617.73
2018-12-21T14:08:54.321Z,98634.02
2018-12-21T14:11:23.621Z,98632.34
2018-12-21T14:13:52.533Z,98646.59
2018-12-21T14:16:22.293Z,98654.25
2018-12-21T14:18:51.528Z,98657.66
2018-12-21T14:21:21.507Z,98661.20
2018-12-21T14:23:52.446Z,98671.40
2018-12-21T14:26:22.517Z,98673.72
2018-12-21T14:29:11.926Z,98660.43
2018-12-21T14:31:44.353Z,98672.94
2018-12-21T14:34:14.398Z,98693.80
2018-12-21T14:36:43.847Z,98700.33
2018-12-21T14:39:26.701Z,98705.63
2018-12-21T14:42:11.057Z,98697.86
2018-12-21T14:44:41.289Z,98709.12
2018-12-21T14:47:10.536Z,98708.95
2018-12-21T14:49:40.642Z,98707.66
2018-12-21T14:52:10.250Z,98712.78
2018-12-21T14:54:39.725Z,98720.22
2018-12-21T14:57:09.694Z,98721.58
2018-12-21T14:59:39.045Z,98739.98
2018-12-21T15:02:08.520Z,98731.20
2018-12-21T15:04:38.025Z,98738.02
2018-12-21T15:07:08.298Z,98738.19
2018-12-21T15:09:37.906Z,98742.19
2018-12-21T15:12:07.820Z,98750.80
2018-12-21T15:17:28.748Z,98765.84
2018-12-21T15:19:57.782Z,98762.91
2018-12-21T15:22:27.593Z,98758.10
2018-12-21T15:24:57.037Z,98761.39
2018-12-21T15:27:26.896Z,98773.79
2018-12-21T15:29:56.727Z,98765.56
2018-12-21T15:32:26.458Z,98785.50
2018-12-21T15:34:55.331Z,98785.00
2018-12-21T15:37:24.545Z,98795.59
2018-12-21T15:39:54.065Z,98783.53
2018-12-21T15:42:23.933Z,98807.58
2018-12-21T15:44:52.839Z,98796.53
2018-12-21T15:47:22.149Z,98797.48
2018-12-21T15:49:51.230Z,98803.95
2018-12-21T15:52:20.602Z,98797.15
2018-12-21T15:54:49.775Z,98805.08
2018-12-21T15:57:19.253Z,98814.25
2018-12-21T15:59:48.454Z,98812.62
2018-12-21T16:02:17.990Z,98824.81
2018-12-21T16:04:47.584Z,98813.47
2018-12-21T16:07:16.713Z,98824.52
2018-12-21T16:09:46.441Z,98831.44
2018-12-21T16:12:15.773Z,98834.48
2018-12-21T16:14:44.640Z,98836.88
2018-12-21T16:17:13.314Z,98834.39
2018-12-21T16:19:42.773Z,98843.80
2018-12-21T16:22:13.515Z,98832.49
2018-12-21T16:24:42.254Z,98838.38
2018-12-21T16:27:11.245Z,98845.78
2018-12-21T16:29:40.278Z,98857.80
2018-12-21T16:32:09.702Z,98856.35
2018-12-21T16:34:38.520Z,98861.03
2018-12-21T16:37:08.317Z,98873.78
2018-12-21T16:39:37.400Z,98868.74
2018-12-21T16:42:06.629Z,98869.29
2018-12-21T16:44:36.798Z,98889.16
2018-12-21T16:47:06.606Z,98873.47
2018-12-21T16:49:36.274Z,98883.39
2018-12-21T16:52:05.332Z,98877.86
2018-12-21T16:54:34.887Z,98877.67
2018-12-21T16:57:03.524Z,98877.02
2018-12-21T16:59:33.595Z,98879.55
2018-12-21T17:02:02.814Z,98896.13
2018-12-21T17:04:31.579Z,98883.03
2018-12-21T17:07:01.113Z,98907.92
2018-12-21T17:09:32.037Z,98902.72
2018-12-21T17:12:01.216Z,98915.61
2018-12-21T17:14:30.795Z,98923.38
2018-12-21T17:17:01.750Z,98927.70
2018-12-21T17:19:30.905Z,98933.08
2018-12-21T17:22:00.088Z,98936.11
2018-12-21T17:24:28.744Z,98951.09
2018-12-21T17:26:58.246Z,98950.20
2018-12-21T17:29:28.788Z,98947.59
2018-12-21T17:32:03.191Z,98952.53
2018-12-21T17:34:32.601Z,98965.70
2018-12-21T17:37:02.131Z,98960.69
2018-12-21T17:39:31.528Z,98977.69
2018-12-21T17:42:01.221Z,98980.28
2018-12-21T17:44:30.002Z,98976.89
2018-12-21T17:46:59.251Z,98983.21
2018-12-21T17:49:28.859Z,98985.70
2018-12-21T17:52:01.586Z,98985.02
2018-12-21T17:54:29.118Z,98990.59
2018-12-21T17:56:58.569Z,98992.01
2018-12-21T17:59:27.574Z,98997.63
2018-12-21T18:01:57.017Z,98999.12
2018-12-21T18:04:28.238Z,99014.03
2018-12-21T18:06:56.878Z,99012.55
2018-12-21T18:09:29.210Z,99018.64
2018-12-21T18:11:59.647Z,99027.32
2018-12-21T18:14:28.585Z,99034.87
2018-12-21T18:16:57.562Z,99042.04
2018-12-21T18:19:27.325Z,99043.33
2018-12-21T18:22:21.531Z,99029.50
2018-12-21T18:24:54.286Z,99044.37
2018-12-21T18:27:23.425Z,99043.52
2018-12-21T18:29:52.936Z,99060.94
2018-12-21T18:32:35.745Z,99087.03
2018-12-21T18:35:06.997Z,99071.52
2018-12-21T18:37:44.159Z,99073.27
2018-12-21T18:40:14.351Z,99078.43
2018-12-21T18:42:43.441Z,99080.02
2018-12-21T18:45:12.893Z,99083.75
2018-12-21T18:47:42.667Z,99083.41
2018-12-21T18:50:13.214Z,99091.38
2018-12-21T18:52:42.253Z,99096.13
2018-12-21T18:55:12.918Z,99088.48
2018-12-21T18:57:42.384Z,99095.66
2018-12-21T19:00:14.649Z,99099.60
2018-12-21T19:02:43.352Z,99100.83
2018-12-21T19:05:13.030Z,99100.78
2018-12-21T19:07:43.329Z,99102.97
2018-12-21T19:10:12.614Z,99115.30
2018-12-21T19:12:42.528Z,99108.80
2018-12-21T19:15:13.060Z,99111.28
2018-12-21T19:17:43.587Z,99108.55
2018-12-21T19:20:13.281Z,99117.45
2018-12-21T19:22:43.289Z,99119.11
2018-12-21T19:25:12.589Z,99129.01
2018-12-21T19:27:41.270Z,99129.30
2018-12-21T19:30:12.073Z,99132.84
2018-12-21T19:32:43.643Z,99143.62
2018-12-21T19:35:14.096Z,99142.20
2018-12-21T19:37:44.544Z,99151.12
2018-12-21T19:40:13.444Z,99161.67
2018-12-21T19:42:42.902Z,99155.91
2018-12-21T19:45:15.021Z,99161.35
2018-12-21T19:47:43.930Z,99180.45
2018-12-21T19:50:12.648Z,99182.03
2018-12-21T19:52:41.733Z,99183.91
2018-12-21T19:55:55.563Z,99186.10
2018-12-21T19:58:25.844Z,99183.52
2018-12-21T20:00:54.579Z,99182.30
2018-12-21T20:03:24.311Z,99184.76
2018-12-21T20:05:53.166Z,99190.69
2018-12-21T20:08:22.282Z,99189.95
2018-12-21T20:10:51.381Z,99183.84
2018-12-21T20:13:20.446Z,99192.47
2018-12-21T20:15:49.167Z,99196.25
2018-12-21T20:18:18.760Z,99193.17
2018-12-21T20:20:48.662Z,99191.00
2018-12-21T20:23:17.599Z,99196.40
2018-12-21T20:25:46.948Z,99191.30
2018-12-21T20:28:16.554Z,99203.27
2018-12-21T20:30:46.866Z,99209.19
2018-12-21T20:33:17.523Z,99200.45
2018-12-21T20:35:46.558Z,99199.66
2018-12-21T20:38:21.392Z,99205.64
2018-12-21T20:40:46.357Z,99212.44
2018-12-21T20:43:15.478Z,99221.41
2018-12-21T20:45:44.145Z,99218.27
2018-12-21T20:48:14.653Z,99218.33
2018-12-21T20:50:43.764Z,99229.83
2018-12-21T20:53:18.437Z,99224.23
2018-12-21T20:55:48.711Z,99235.25
2018-12-21T20:58:32.517Z,99226.72
2018-12-21T21:01:01.259Z,99235.11
2018-12-21T21:03:30.710Z,99223.52
2018-12-21T21:05:59.547Z,99220.86
2018-12-21T21:08:29.314Z,99238.36
2018-12-21T21:10:59.245Z,99240.09
2018-12-21T21:13:28.861Z,99236.16
2018-12-21T21:15:58.423Z,99226.78
2018-12-21T21:18:27.469Z,99258.52
2018-12-21T21:20:56.963Z,99257.67
2018-12-21T21:27:16.958Z,99271.37
2018-12-21T21:29:54.760Z,99285.15
2018-12-21T21:32:30.335Z,99285.73
2018-12-21T21:35:06.316Z,99300.66
2018-12-21T21:37:42.955Z,99303.66
2018-12-21T21:40:21.583Z,99309.73
2018-12-21T21:42:57.911Z,99314.48
2018-12-21T21:45:34.751Z,99316.70
2018-12-21T21:48:11.692Z,99318.88
2018-12-21T21:50:44.184Z,99323.18
2018-12-21T21:53:14.701Z,99333.52
2018-12-21T21:55:44.856Z,99334.09
2018-12-21T21:58:18.893Z,99341.53
2018-12-21T22:00:48.942Z,99348.03
2018-12-21T22:03:21.305Z,99358.34
2018-12-21T22:05:54.525Z,99362.64
2018-12-21T22:08:24.840Z,99361.84
2018-12-21T22:11:01.881Z,99373.55
2018-12-21T22:13:29.306Z,99367.59
2018-12-21T22:15:59.917Z,99377.52
2018-12-21T22:18:29.728Z,99381.82
2018-12-21T22:21:01.225Z,99390.91
2018-12-21T22:23:31.125Z,99387.89
2018-12-21T22:26:01.167Z,99397.83
2018-12-21T22:28:32.997Z,99386.36
2018-12-21T22:31:03.206Z,99394.97
2018-12-21T22:33:34.172Z,99394.55
2018-12-21T22:36:04.433Z,99389.77
2018-12-21T22:38:34.276Z,99394.05
2018-12-21T22:41:05.857Z,99388.11
2018-12-21T22:43:36.260Z,99397.09
2018-12-21T22:46:09.373Z,99398.83
2018-12-21T22:48:40.272Z,99403.58
2018-12-21T22:51:11.391Z,99406.98
2018-12-21T22:54:05.585Z,99408.69
2018-12-21T22:57:00.827Z,99411.72
2018-12-21T22:59:31.961Z,99418.15
2018-12-21T23:02:02.720Z,99416.88
2018-12-21T23:04:35.709Z,99419.95
2018-12-21T23:07:09.515Z,99427.22
2018-12-21T23:09:40.249Z,99437.57
2018-12-21T23:12:11.335Z,99444.45
2018-12-21T23:14:42.636Z,99441.91
2018-12-21T23:17:13.466Z,99444.92
2018-12-21T23:19:43.224Z,99450.58
2018-12-21T23:22:15.863Z,99444.92
2018-12-21T23:24:48.496Z,99450.91
2018-12-21T23:27:19.227Z,99443.27
2018-12-21T23:29:50.348Z,99447.06
2018-12-21T23:32:21.381Z,99458.75
2018-12-21T23:34:59.460Z,99454.01
2018-12-21T23:37:33.062Z,99461.36
2018-12-21T23:40:05.791Z,99447.98
2018-12-21T23:42:38.745Z,99453.96
2018-12-21T23:45:11.276Z,99462.16
2018-12-21T23:47:43.880Z,99462.19
2018-12-21T23:50:14.745Z,99453.16
2018-12-21T23:52:46.169Z,99460.02
2018-12-21T23:55:17.344Z,99474.11
2018-12-21T23:57:47.744Z,99459.20
